Time,TemperatureF,DewpointF,PressureIn,WindDirection,WindDirectionDegrees,WindSpeedMPH,WindSpeedGustMPH,Humidity,HourlyPrecipIn,Conditions,Clouds,dailyrainin,SoftwareType,DateUTC
2013-04-17 09:03:00,31.0,15.0,-100.00,ESE,119,2.0,-999.0,51,-99.99,,,-99.99,,2013-04-17 16:03:00,
2013-04-17 09:12:00,31.0,15.0,-100.00,ESE,119,2.0,-999.0,51,-99.99,,,-99.99,,2013-04-17 16:12:00,
2013-04-17 09:22:00,31.0,15.0,-100.00,ESE,119,2.0,-999.0,51,-99.99,,,-99.99,,2013-04-17 16:22:00,
2013-04-17 09:32:00,31.0,15.0,-100.00,ESE,119,2.0,-999.0,51,-99.99,,,-99.99,,2013-04-17 16:32:00,
2013-04-17 10:02:00,34.0,9.0,-100.00,NNW,346,4.0,11.0,35,0.00,,,-99.99,,2013-04-17 17:02:00,
2013-04-17 10:12:00,34.0,9.0,-100.00,NNW,346,4.0,11.0,35,0.00,,,-99.99,,2013-04-17 17:12:00,
2013-04-17 10:22:00,34.0,9.0,-100.00,NNW,346,4.0,11.0,35,0.00,,,-99.99,,2013-04-17 17:22:00,
2013-04-17 10:32:00,34.0,9.0,-100.00,NNW,346,4.0,11.0,35,0.00,,,-99.99,,2013-04-17 17:32:00,
2013-04-17 11:02:00,36.0,10.0,-100.00,NNE,14,5.0,14.0,34,0.00,,,0.00,,2013-04-17 18:02:00,
2013-04-17 11:12:00,36.0,10.0,-100.00,NNE,14,5.0,14.0,34,0.00,,,0.00,,2013-04-17 18:12:00,
2013-04-17 11:22:00,36.0,10.0,-100.00,NNE,14,5.0,14.0,34,0.00,,,0.00,,2013-04-17 18:22:00,
2013-04-17 12:02:00,36.0,8.0,-100.00,NNW,337,8.0,19.0,31,0.00,,,0.00,,2013-04-17 19:02:00,
2013-04-17 12:12:00,36.0,8.0,-100.00,NNW,337,8.0,19.0,31,0.00,,,0.00,,2013-04-17 19:12:00,
2013-04-17 12:22:00,36.0,8.0,-100.00,NNW,337,8.0,19.0,31,0.00,,,0.00,,2013-04-17 19:22:00,
2013-04-17 12:32:00,36.0,8.0,-100.00,NNW,337,8.0,19.0,31,0.00,,,0.00,,2013-04-17 19:32:00,
2013-04-17 13:02:00,40.0,12.0,-100.00,NE,40,3.0,17.0,31,0.00,,,0.00,,2013-04-17 20:02:00,
2013-04-17 13:12:00,40.0,12.0,-100.00,NE,40,3.0,17.0,31,0.00,,,0.00,,2013-04-17 20:12:00,
2013-04-17 13:22:00,40.0,12.0,-100.00,NE,40,3.0,17.0,31,0.00,,,0.00,,2013-04-17 20:22:00,
2013-04-17 13:32:00,40.0,12.0,-100.00,NE,40,3.0,17.0,31,0.00,,,0.00,,2013-04-17 20:32:00,
2013-04-17 14:02:00,39.0,11.0,-100.00,SW,229,4.0,17.0,31,0.00,,,0.00,,2013-04-17 21:02:00,
2013-04-17 14:12:00,39.0,11.0,-100.00,SW,229,4.0,17.0,31,0.00,,,0.00,,2013-04-17 21:12:00,
2013-04-17 14:22:00,39.0,11.0,-100.00,SW,229,4.0,17.0,31,0.00,,,0.00,,2013-04-17 21:22:00,
2013-04-17 14:32:00,39.0,11.0,-100.00,SW,229,4.0,17.0,31,0.00,,,0.00,,2013-04-17 21:32:00,
2013-04-17 15:02:00,41.0,12.0,-100.00,NE,47,4.0,15.0,30,0.00,,,0.00,,2013-04-17 22:02:00,
2013-04-17 15:12:00,41.0,12.0,-100.00,NE,47,4.0,15.0,30,0.00,,,0.00,,2013-04-17 22:12:00,
2013-04-17 15:22:00,41.0,12.0,-100.00,NE,47,4.0,15.0,30,0.00,,,0.00,,2013-04-17 22:22:00,
2013-04-17 15:33:00,41.0,12.0,-100.00,NE,47,4.0,15.0,30,0.00,,,0.00,,2013-04-17 22:33:00,
2013-04-17 16:02:00,43.0,12.0,-100.00,NE,38,4.0,16.0,28,0.00,,,0.00,,2013-04-17 23:02:00,
2013-04-17 16:12:00,43.0,12.0,-100.00,NE,38,4.0,16.0,28,0.00,,,0.00,,2013-04-17 23:12:00,
2013-04-17 16:22:00,43.0,12.0,-100.00,NE,38,4.0,16.0,28,0.00,,,0.00,,2013-04-17 23:22:00,
2013-04-17 16:32:00,43.0,12.0,-100.00,NE,38,4.0,16.0,28,0.00,,,0.00,,2013-04-17 23:32:00,
2013-04-17 17:02:00,40.0,8.0,-100.00,North,4,4.0,18.0,26,0.00,,,0.00,,2013-04-18 00:02:00,
2013-04-17 17:12:00,40.0,8.0,-100.00,North,4,4.0,18.0,26,0.00,,,0.00,,2013-04-18 00:12:00,
2013-04-17 17:22:00,40.0,8.0,-100.00,North,4,4.0,18.0,26,0.00,,,0.00,,2013-04-18 00:22:00,
2013-04-17 17:32:00,40.0,8.0,-100.00,North,4,4.0,18.0,26,0.00,,,0.00,,2013-04-18 00:32:00,
2013-04-17 19:02:00,39.0,-99.9,-100.00,North,-999,-999.0,-999.0,-999,-99.99,,,0.00,,2013-04-18 02:02:00,
2013-04-17 19:12:00,39.0,-99.9,-100.00,North,-999,-999.0,-999.0,-999,-99.99,,,0.00,,2013-04-18 02:12:00,
2013-04-17 19:22:00,39.0,-99.9,-100.00,North,-999,-999.0,-999.0,-999,-99.99,,,0.00,,2013-04-18 02:22:00,
2013-04-17 19:32:00,39.0,-99.9,-100.00,North,-999,-999.0,-999.0,-999,-99.99,,,0.00,,2013-04-18 02:32:00,